createdAt,value
2022-10-08T00:01:28.615Z,97047.22
2022-10-08T00:03:57.069Z,97037.19
2022-10-08T00:06:28.428Z,97040.25
2022-10-08T00:09:07.601Z,97044.84
2022-10-08T00:11:38.771Z,97035.22
2022-10-08T00:14:08.225Z,97035.28
2022-10-08T00:16:40.985Z,97044.13
2022-10-08T00:19:12.795Z,97034.47
2022-10-08T00:21:43.245Z,97036.03
2022-10-08T00:24:17.266Z,97033.31
2022-10-08T00:26:44.966Z,97033.53
2022-10-08T00:29:15.200Z,97032.91
2022-10-08T00:31:45.725Z,97032.94
2022-10-08T00:34:16.205Z,97035.31
2022-10-08T00:36:43.817Z,97039.97
2022-10-08T00:39:16.831Z,97042.25
2022-10-08T00:41:47.922Z,97038.03
2022-10-08T00:44:43.266Z,97030.63
2022-10-08T00:47:32.690Z,97036.78
2022-10-08T00:50:00.019Z,97026.44
2022-10-08T00:52:30.998Z,97034.97
2022-10-08T00:54:58.529Z,97032.28
2022-10-08T00:57:27.148Z,97033.03
2022-10-08T00:59:54.888Z,97032.28
2022-10-08T01:02:22.362Z,97035.78
2022-10-08T01:04:50.007Z,97031.94
2022-10-08T01:07:25.056Z,97033.44
2022-10-08T01:10:00.349Z,97037.66
2022-10-08T01:12:58.711Z,97038.34
2022-10-08T01:15:41.025Z,97036.09
2022-10-08T01:18:21.594Z,97039.13
2022-10-08T01:21:01.107Z,97034.91
2022-10-08T01:23:56.162Z,97037.97
2022-10-08T01:26:40.902Z,97016.38
2022-10-08T01:29:17.190Z,97035.34
2022-10-08T01:31:48.806Z,97033.44
2022-10-08T01:34:22.292Z,97027.63
2022-10-08T01:36:54.090Z,97036.88
2022-10-08T01:39:25.880Z,97045.81
2022-10-08T01:41:56.782Z,97038.47
2022-10-08T01:44:33.908Z,97036.50
2022-10-08T01:47:07.427Z,97043.13
2022-10-08T01:49:42.198Z,97045.81
2022-10-08T01:52:48.825Z,97034.97
2022-10-08T01:55:32.367Z,97049.28
2022-10-08T01:58:04.840Z,97053.94
2022-10-08T02:00:34.719Z,97051.63
2022-10-08T02:03:02.694Z,97047.81
2022-10-08T02:05:34.903Z,97051.25
2022-10-08T02:08:02.600Z,97053.22
2022-10-08T02:10:30.516Z,97050.91
2022-10-08T02:12:58.334Z,97061.31
2022-10-08T02:15:28.811Z,97064.00
2022-10-08T02:18:06.632Z,97059.75
2022-10-08T02:20:45.821Z,97064.41
2022-10-08T02:23:32.531Z,97067.09
2022-10-08T02:26:02.961Z,97068.28
2022-10-08T02:28:39.616Z,97069.81
2022-10-08T02:31:18.172Z,97079.47
2022-10-08T02:34:11.637Z,97072.06
2022-10-08T02:36:45.744Z,97072.13
2022-10-08T02:39:16.088Z,97067.91
2022-10-08T02:41:51.814Z,97077.94
2022-10-08T02:44:42.021Z,97072.53
2022-10-08T02:47:15.073Z,97073.69
2022-10-08T02:49:51.943Z,97074.84
2022-10-08T02:52:22.107Z,97076.41
2022-10-08T02:54:52.225Z,97079.13
2022-10-08T02:57:31.239Z,97082.19
2022-10-08T02:59:59.515Z,97078.34
2022-10-08T03:02:39.705Z,97088.75
2022-10-08T03:05:14.062Z,97087.59
2022-10-08T03:07:42.945Z,97094.16
2022-10-08T03:10:10.780Z,97092.66
2022-10-08T03:12:38.797Z,97094.16
2022-10-08T03:15:09.394Z,97103.06
2022-10-08T03:17:41.732Z,97112.72
2022-10-08T03:20:10.458Z,97106.50
2022-10-08T03:22:38.751Z,97110.41
2022-10-08T03:25:06.322Z,97115.44
2022-10-08T03:27:35.494Z,97118.13
2022-10-08T03:30:04.849Z,97119.66
2022-10-08T03:32:32.619Z,97118.50
2022-10-08T03:35:00.056Z,97116.97
2022-10-08T03:37:27.445Z,97121.97
2022-10-08T03:39:54.839Z,97127.38
2022-10-08T03:42:22.198Z,97135.09
2022-10-08T03:44:49.760Z,97136.66
2022-10-08T03:47:17.211Z,97130.47
2022-10-08T03:49:44.572Z,97142.03
2022-10-08T03:52:11.959Z,97133.13
2022-10-08T03:54:39.333Z,97142.81
2022-10-08T03:57:06.778Z,97147.81
2022-10-08T03:59:34.129Z,97151.69
2022-10-08T04:02:01.550Z,97149.75
2022-10-08T04:04:29.149Z,97150.13
2022-10-08T04:06:56.618Z,97165.22
2022-10-08T04:09:23.995Z,97154.41
2022-10-08T04:11:51.433Z,97162.91
2022-10-08T04:14:18.908Z,97169.50
2022-10-08T04:16:46.481Z,97164.06
2022-10-08T04:19:14.514Z,97171.00
2022-10-08T04:21:42.070Z,97178.38
2022-10-08T04:24:09.876Z,97183.75
2022-10-08T04:26:37.287Z,97181.44
2022-10-08T04:29:04.711Z,97182.59
2022-10-08T04:31:32.169Z,97190.69
2022-10-08T04:33:59.629Z,97191.06
2022-10-08T04:36:27.133Z,97202.25
2022-10-08T04:38:54.611Z,97203.38
2022-10-08T04:41:26.377Z,97212.59
2022-10-08T04:43:58.346Z,97215.34
2022-10-08T04:46:25.868Z,97218.41
2022-10-08T04:48:55.683Z,97227.66
2022-10-08T04:51:25.363Z,97223.38
2022-10-08T04:53:54.296Z,97225.31
2022-10-08T04:56:26.637Z,97228.38
2022-10-08T04:58:57.735Z,97233.38
2022-10-08T05:01:26.858Z,97235.31
2022-10-08T05:03:56.108Z,97231.78
2022-10-08T05:06:26.305Z,97233.69
2022-10-08T05:08:54.069Z,97247.59
2022-10-08T05:11:25.191Z,97244.81
2022-10-08T05:13:54.153Z,97245.13
2022-10-08T05:16:21.922Z,97233.88
2022-10-08T05:18:52.179Z,97241.81
2022-10-08T05:21:22.832Z,97256.88
2022-10-08T05:24:02.531Z,97250.97
2022-10-08T05:26:57.036Z,97259.09
2022-10-08T05:29:21.233Z,97262.19
2022-10-08T05:31:48.778Z,97255.59
2022-10-08T05:34:16.548Z,97257.09
2022-10-08T05:36:43.961Z,97259.78
2022-10-08T05:39:12.025Z,97261.75
2022-10-08T05:41:39.499Z,97262.09
2022-10-08T05:44:07.713Z,97269.81
2022-10-08T05:46:36.475Z,97280.97
2022-10-08T05:49:07.588Z,97271.09
2022-10-08T05:51:36.440Z,97276.22
2022-10-08T05:54:04.008Z,97271.56
2022-10-08T05:56:31.970Z,97284.31
2022-10-08T05:58:59.574Z,97281.34
2022-10-08T06:01:29.810Z,97288.53
2022-10-08T06:04:08.136Z,97281.75
2022-10-08T06:06:37.523Z,97274.72
2022-10-08T06:09:06.737Z,97284.69
2022-10-08T06:11:36.487Z,97292.78
2022-10-08T06:14:06.313Z,97285.69
2022-10-08T06:16:35.113Z,97286.34
2022-10-08T06:19:03.586Z,97293.06
2022-10-08T06:21:31.966Z,97286.72
2022-10-08T06:24:01.675Z,97292.00
2022-10-08T06:26:35.608Z,97295.78
2022-10-08T06:29:06.168Z,97301.66
2022-10-08T06:31:35.542Z,97300.81
2022-10-08T06:34:04.912Z,97308.16
2022-10-08T06:36:34.359Z,97311.25
2022-10-08T06:39:08.155Z,97301.88
2022-10-08T06:41:35.662Z,97301.88
2022-10-08T06:44:05.328Z,97306.44
2022-10-08T06:46:33.515Z,97307.94
2022-10-08T06:49:01.760Z,97304.06
2022-10-08T06:51:29.831Z,97316.44
2022-10-08T06:54:05.751Z,97312.13
2022-10-08T06:56:36.294Z,97311.41
2022-10-08T06:59:05.668Z,97313.25
2022-10-08T07:01:35.373Z,97314.16
2022-10-08T07:04:04.818Z,97314.19
2022-10-08T07:06:32.169Z,97300.25
2022-10-08T07:09:02.163Z,97310.75
2022-10-08T07:11:32.249Z,97308.19
2022-10-08T07:13:59.954Z,97320.03
2022-10-08T07:16:28.840Z,97329.16
2022-10-08T07:18:58.949Z,97325.00
2022-10-08T07:21:28.958Z,97319.06
2022-10-08T07:23:58.767Z,97326.50
2022-10-08T07:26:28.368Z,97329.13
2022-10-08T07:29:06.961Z,97321.88
2022-10-08T07:31:36.862Z,97327.50
2022-10-08T07:34:07.169Z,97337.13
2022-10-08T07:36:35.215Z,97346.16
2022-10-08T07:39:06.082Z,97336.88
2022-10-08T07:41:33.767Z,97341.06
2022-10-08T07:44:02.741Z,97347.53
2022-10-08T07:46:32.796Z,97353.94
2022-10-08T07:49:01.811Z,97332.72
2022-10-08T07:51:31.605Z,97347.44
2022-10-08T07:54:03.890Z,97339.47
2022-10-08T07:56:33.946Z,97334.28
2022-10-08T07:59:02.669Z,97353.34
2022-10-08T08:01:31.198Z,97357.03
2022-10-08T08:04:07.081Z,97362.41
2022-10-08T08:06:39.909Z,97362.06
2022-10-08T08:09:07.916Z,97348.16
2022-10-08T08:11:35.369Z,97364.66
2022-10-08T08:14:02.902Z,97359.25
2022-10-08T08:16:31.803Z,97360.44
2022-10-08T08:19:02.328Z,97372.44
2022-10-08T08:21:32.860Z,97356.88
2022-10-08T08:24:06.423Z,97365.16
2022-10-08T08:26:37.010Z,97361.50
2022-10-08T08:29:07.719Z,97358.09
2022-10-08T08:31:38.663Z,97360.91
2022-10-08T08:34:09.068Z,97359.97
2022-10-08T08:36:39.378Z,97358.47
2022-10-08T08:39:10.601Z,97363.16
2022-10-08T08:41:53.188Z,97368.09
2022-10-08T08:44:27.204Z,97363.94
2022-10-08T08:47:00.589Z,97360.41
2022-10-08T08:49:30.467Z,97367.41
2022-10-08T08:52:00.649Z,97364.00
2022-10-08T08:54:28.049Z,97362.31
2022-10-08T08:56:55.892Z,97371.44
2022-10-08T08:59:46.029Z,97363.41
2022-10-08T09:02:54.967Z,97368.88
2022-10-08T09:05:25.356Z,97369.13
2022-10-08T09:08:16.411Z,97370.34
2022-10-08T09:10:51.764Z,97378.03
2022-10-08T09:13:44.830Z,97367.59
2022-10-08T09:16:15.899Z,97380.91
2022-10-08T09:18:51.658Z,97384.41
2022-10-08T09:21:20.176Z,97383.69
2022-10-08T09:23:48.372Z,97380.41
2022-10-08T09:26:24.630Z,97389.69
2022-10-08T09:29:00.398Z,97388.59
2022-10-08T09:31:36.874Z,97396.41
2022-10-08T09:34:10.461Z,97407.41
2022-10-08T09:36:55.025Z,97398.25
2022-10-08T09:39:25.824Z,97395.31
2022-10-08T09:42:08.646Z,97390.06
2022-10-08T09:44:42.183Z,97387.97
2022-10-08T09:47:13.851Z,97395.50
2022-10-08T09:49:41.844Z,97400.47
2022-10-08T09:52:27.260Z,97409.28
2022-10-08T09:55:21.683Z,97399.91
2022-10-08T09:57:54.726Z,97408.81
2022-10-08T10:00:29.506Z,97396.75
2022-10-08T10:02:58.852Z,97409.75
2022-10-08T10:05:32.530Z,97416.28
2022-10-08T10:08:00.000Z,97423.22
2022-10-08T10:10:33.654Z,97427.94
2022-10-08T10:13:00.891Z,97428.69
2022-10-08T10:16:04.635Z,97432.22
2022-10-08T10:18:52.210Z,97436.25
2022-10-08T10:21:28.992Z,97440.53
2022-10-08T10:24:22.199Z,97440.56
2022-10-08T10:26:54.647Z,97444.06
2022-10-08T10:29:27.180Z,97444.44
2022-10-08T10:32:00.710Z,97445.88
2022-10-08T10:34:31.203Z,97453.34
2022-10-08T10:37:05.264Z,97449.50
2022-10-08T10:39:39.730Z,97457.28
2022-10-08T10:42:07.077Z,97448.97
2022-10-08T10:44:47.246Z,97457.94
2022-10-08T10:47:15.820Z,97445.31
2022-10-08T10:49:44.350Z,97459.75
2022-10-08T10:52:39.276Z,97457.78
2022-10-08T10:55:18.402Z,97456.28
2022-10-08T10:58:08.497Z,97461.16
2022-10-08T11:00:41.968Z,97461.00
2022-10-08T11:03:24.166Z,97464.94
2022-10-08T11:06:13.036Z,97465.81
2022-10-08T11:08:59.915Z,97465.31
2022-10-08T11:11:50.413Z,97471.03
2022-10-08T11:14:36.361Z,97472.03
2022-10-08T11:17:19.900Z,97471.22
2022-10-08T11:20:04.268Z,97470.13
2022-10-08T11:22:40.352Z,97486.09
2022-10-08T11:26:16.481Z,97494.16
2022-10-08T11:28:58.141Z,97496.19
2022-10-08T11:31:36.276Z,97493.09
2022-10-08T11:34:04.771Z,97500.66
2022-10-08T11:36:48.394Z,97491.53
2022-10-08T11:39:31.955Z,97503.63
2022-10-08T11:42:08.275Z,97501.38
2022-10-08T11:44:37.438Z,97503.84
2022-10-08T11:47:42.126Z,97514.53
2022-10-08T11:50:24.642Z,97505.22
2022-10-08T11:52:54.834Z,97510.47
2022-10-08T11:55:29.349Z,97508.97
2022-10-08T11:58:21.354Z,97519.03
2022-10-08T12:00:49.731Z,97517.69
2022-10-08T12:03:27.647Z,97530.81
2022-10-08T12:05:59.004Z,97523.59
2022-10-08T12:08:57.535Z,97524.25
2022-10-08T12:11:37.829Z,97530.97
2022-10-08T12:14:11.385Z,97540.00
2022-10-08T12:16:47.968Z,97531.94
2022-10-08T12:19:34.281Z,97550.22
2022-10-08T12:22:16.973Z,97549.09
2022-10-08T12:24:49.629Z,97546.19
2022-10-08T12:27:17.700Z,97546.25
2022-10-08T12:30:01.054Z,97550.00
2022-10-08T12:32:42.082Z,97548.56
2022-10-08T12:35:28.116Z,97547.69
2022-10-08T12:37:55.587Z,97544.78
2022-10-08T12:40:40.796Z,97557.25
2022-10-08T12:43:51.048Z,97559.84
2022-10-08T12:46:44.935Z,97564.22
2022-10-08T12:49:35.478Z,97562.97
2022-10-08T12:52:12.030Z,97567.31
2022-10-08T12:55:01.880Z,97572.72
2022-10-08T12:57:39.660Z,97576.69
2022-10-08T13:00:28.942Z,97578.56
2022-10-08T13:03:16.864Z,97581.72
2022-10-08T13:05:45.242Z,97579.06
2022-10-08T13:08:18.743Z,97581.75
2022-10-08T13:10:46.272Z,97582.97
2022-10-08T13:13:38.548Z,97586.78
2022-10-08T13:16:09.018Z,97589.53
2022-10-08T13:18:37.962Z,97584.13
2022-10-08T13:21:08.342Z,97593.06
2022-10-08T13:23:40.067Z,97596.53
2022-10-08T13:26:39.807Z,97606.97
2022-10-08T13:29:22.605Z,97610.88
2022-10-08T13:32:19.589Z,97620.94
2022-10-08T13:34:51.426Z,97612.47
2022-10-08T13:37:21.975Z,97619.44
2022-10-08T13:40:02.975Z,97615.94
2022-10-08T13:42:34.718Z,97627.22
2022-10-08T13:45:04.403Z,97634.59
2022-10-08T13:47:32.088Z,97632.28
2022-10-08T13:50:02.800Z,97624.53
2022-10-08T13:52:34.389Z,97640.41
2022-10-08T13:55:09.046Z,97645.88
2022-10-08T13:57:36.499Z,97645.88
2022-10-08T14:00:05.546Z,97647.44
2022-10-08T14:02:33.065Z,97655.19
2022-10-08T14:05:00.417Z,97666.03
2022-10-08T14:07:31.530Z,97669.94
2022-10-08T14:10:01.915Z,97665.28
2022-10-08T14:12:35.446Z,97662.19
2022-10-08T14:15:02.846Z,97667.22
2022-10-08T14:17:32.846Z,97667.63
2022-10-08T14:20:00.422Z,97673.44
2022-10-08T14:22:27.867Z,97680.41
2022-10-08T14:24:55.219Z,97683.91
2022-10-08T14:27:22.687Z,97683.13
2022-10-08T14:29:50.132Z,97687.78
2022-10-08T14:32:17.629Z,97683.88
2022-10-08T14:34:44.959Z,97694.72
2022-10-08T14:37:12.414Z,97695.13
2022-10-08T14:39:39.879Z,97698.59
2022-10-08T14:42:07.424Z,97699.78
2022-10-08T14:44:34.794Z,97697.44
2022-10-08T14:47:02.246Z,97711.38
2022-10-08T14:49:29.679Z,97706.31
2022-10-08T14:51:57.178Z,97710.19
2022-10-08T14:54:26.059Z,97717.94
2022-10-08T14:56:53.479Z,97727.25
2022-10-08T14:59:22.186Z,97726.44
2022-10-08T15:01:49.580Z,97730.31
2022-10-08T15:04:17.251Z,97744.28
2022-10-08T15:06:44.722Z,97740.00
2022-10-08T15:09:12.690Z,97747.75
2022-10-08T15:11:40.332Z,97745.44
2022-10-08T15:14:07.836Z,97748.50
2022-10-08T15:16:35.861Z,97748.50
2022-10-08T15:19:07.830Z,97755.88
2022-10-08T15:21:35.893Z,97765.13
2022-10-08T15:24:03.497Z,97758.84
2022-10-08T15:26:31.148Z,97770.88
2022-10-08T15:28:58.639Z,97764.66
2022-10-08T15:31:26.769Z,97768.94
2022-10-08T15:33:56.374Z,97771.69
2022-10-08T15:36:29.017Z,97778.66
2022-10-08T15:39:12.203Z,97780.25
2022-10-08T15:41:42.502Z,97779.44
2022-10-08T15:44:14.298Z,97788.38
2022-10-08T15:46:42.027Z,97785.25
2022-10-08T15:49:09.493Z,97775.53
2022-10-08T15:51:37.013Z,97799.19
2022-10-08T15:54:04.938Z,97791.44
2022-10-08T15:56:32.760Z,97789.91
2022-10-08T15:59:01.438Z,97798.81
2022-10-08T16:01:29.865Z,97791.47
2022-10-08T16:03:58.437Z,97799.97
2022-10-08T16:06:29.322Z,97791.47
2022-10-08T16:08:58.208Z,97791.47
2022-10-08T16:11:29.572Z,97788.38
2022-10-08T16:14:03.272Z,97799.22
2022-10-08T16:16:31.097Z,97806.09
2022-10-08T16:19:02.234Z,97801.50
2022-10-08T16:21:31.792Z,97802.63
2022-10-08T16:23:59.790Z,97801.06
2022-10-08T16:26:29.233Z,97801.06
2022-10-08T16:28:59.413Z,97782.03
2022-10-08T16:31:28.977Z,97816.16
2022-10-08T16:33:58.053Z,97810.69
2022-10-08T16:36:27.257Z,97815.34
2022-10-08T16:38:55.146Z,97816.50
2022-10-08T16:41:28.854Z,97820.47
2022-10-08T16:43:57.790Z,97817.09
2022-10-08T16:46:28.199Z,97825.91
2022-10-08T16:48:56.964Z,97828.91
2022-10-08T16:51:27.021Z,97838.56
2022-10-08T16:53:56.511Z,97832.31
2022-10-08T16:56:26.815Z,97844.31
2022-10-08T16:58:56.423Z,97835.00
2022-10-08T17:01:24.412Z,97843.09
2022-10-08T17:03:52.938Z,97839.91
2022-10-08T17:06:22.598Z,97849.63
2022-10-08T17:08:51.378Z,97846.47
2022-10-08T17:11:19.415Z,97853.44
2022-10-08T17:13:55.958Z,97826.72
2022-10-08T17:16:26.429Z,97847.19
2022-10-08T17:18:57.013Z,97865.81
2022-10-08T17:21:25.362Z,97853.75
2022-10-08T17:23:52.928Z,97856.81
2022-10-08T17:26:22.760Z,97873.50
2022-10-08T17:28:52.070Z,97876.16
2022-10-08T17:31:22.696Z,97866.84
2022-10-08T17:33:50.663Z,97873.72
2022-10-08T17:36:26.651Z,97869.88
2022-10-08T17:38:56.758Z,97871.41
2022-10-08T17:41:34.825Z,97877.63
2022-10-08T17:44:05.437Z,97879.16
2022-10-08T17:46:36.415Z,97879.50
2022-10-08T17:49:04.790Z,97887.59
2022-10-08T17:51:32.765Z,97879.47
2022-10-08T17:54:03.658Z,97879.50
2022-10-08T17:56:32.625Z,97889.16
2022-10-08T17:59:00.616Z,97882.50
2022-10-08T18:01:31.124Z,97889.16
2022-10-08T18:04:10.333Z,97902.78
2022-10-08T18:06:43.446Z,97901.88
2022-10-08T18:09:13.943Z,97898.34
2022-10-08T18:11:45.070Z,97908.06
2022-10-08T18:14:13.273Z,97905.31
2022-10-08T18:16:45.568Z,97913.78
2022-10-08T18:19:15.246Z,97911.44
2022-10-08T18:21:42.733Z,97914.16
2022-10-08T18:24:11.230Z,97907.16
2022-10-08T18:26:38.719Z,97911.06
2022-10-08T18:29:09.865Z,97923.09
2022-10-08T18:31:39.850Z,97912.97
2022-10-08T18:34:11.980Z,97923.47
2022-10-08T18:36:40.640Z,97917.19
2022-10-08T18:39:14.610Z,97928.91
2022-10-08T18:41:44.852Z,97922.28
2022-10-08T18:44:14.943Z,97929.25
2022-10-08T18:46:45.755Z,97926.16
2022-10-08T18:49:16.334Z,97928.53
2022-10-08T18:51:44.240Z,97931.66
2022-10-08T18:54:12.356Z,97929.72
2022-10-08T18:56:41.358Z,97927.00
2022-10-08T18:59:12.991Z,97939.88
2022-10-08T19:01:43.041Z,97936.06
2022-10-08T19:04:19.219Z,97936.13
2022-10-08T19:06:48.637Z,97939.56
2022-10-08T19:09:16.429Z,97939.13
2022-10-08T19:11:49.777Z,97946.47
2022-10-08T19:14:19.469Z,97940.31
2022-10-08T19:16:47.595Z,97942.53
2022-10-08T19:19:22.313Z,97941.41
2022-10-08T19:21:50.792Z,97939.78
2022-10-08T19:24:21.450Z,97939.47
2022-10-08T19:26:50.055Z,97945.31
2022-10-08T19:29:20.625Z,97945.38
2022-10-08T19:31:49.143Z,97947.66
2022-10-08T19:34:19.795Z,97948.09
2022-10-08T19:36:48.210Z,97946.56
2022-10-08T19:39:19.413Z,97957.84
2022-10-08T19:41:47.080Z,97949.31
2022-10-08T19:44:14.839Z,97946.69
2022-10-08T19:46:42.419Z,97938.06
2022-10-08T19:49:10.341Z,97956.38
2022-10-08T19:51:38.571Z,97954.00
2022-10-08T19:54:06.176Z,97959.84
2022-10-08T19:56:33.972Z,97965.97
2022-10-08T19:59:01.536Z,97969.09
2022-10-08T20:01:32.832Z,97972.25
2022-10-08T20:04:02.126Z,97974.13
2022-10-08T20:06:32.238Z,97990.03
2022-10-08T20:09:02.288Z,97979.19
2022-10-08T20:11:31.515Z,97985.34
2022-10-08T20:13:59.983Z,97992.66
2022-10-08T20:16:34.003Z,97992.72
2022-10-08T20:19:04.776Z,97997.31
2022-10-08T20:21:34.615Z,98001.88
2022-10-08T20:24:02.782Z,97992.94
2022-10-08T20:26:32.816Z,97990.22
2022-10-08T20:29:07.354Z,97988.31
2022-10-08T20:31:40.833Z,98001.53
2022-10-08T20:34:20.166Z,97999.59
2022-10-08T20:36:49.000Z,98007.94
2022-10-08T20:39:18.609Z,98004.81
2022-10-08T20:41:46.574Z,98005.13
2022-10-08T20:44:14.924Z,98009.41
2022-10-08T20:46:42.875Z,98006.69
2022-10-08T20:49:12.252Z,98015.25
2022-10-08T20:51:41.614Z,98023.75
2022-10-08T20:54:12.530Z,98028.84
2022-10-08T20:56:41.090Z,98027.97
2022-10-08T20:59:15.814Z,98031.59
2022-10-08T21:01:43.383Z,98026.06
2022-10-08T21:04:11.351Z,98031.81
2022-10-08T21:06:44.376Z,98042.09
2022-10-08T21:09:12.964Z,98038.97
2022-10-08T21:11:41.048Z,98037.81
2022-10-08T21:14:10.231Z,98044.38
2022-10-08T21:16:40.179Z,98047.19
2022-10-08T21:19:11.636Z,98051.88
2022-10-08T21:21:39.858Z,98054.19
2022-10-08T21:24:07.470Z,98043.75
2022-10-08T21:26:37.580Z,98058.13
2022-10-08T21:29:08.297Z,98067.75
2022-10-08T21:31:37.249Z,98071.25
2022-10-08T21:34:06.019Z,98069.69
2022-10-08T21:36:39.083Z,98073.69
2022-10-08T21:39:08.435Z,98067.41
2022-10-08T21:41:38.586Z,98064.78
2022-10-08T21:44:08.734Z,98074.03
2022-10-08T21:46:41.417Z,98077.25
2022-10-08T21:49:13.237Z,98076.09
2022-10-08T21:51:40.886Z,98078.34
2022-10-08T21:54:56.340Z,98079.72
2022-10-08T21:57:23.726Z,98078.41
2022-10-08T21:59:51.157Z,98079.16
2022-10-08T22:02:18.663Z,98076.44
2022-10-08T22:04:45.996Z,98072.91
2022-10-08T22:07:13.485Z,98073.69
2022-10-08T22:09:42.060Z,98073.72
2022-10-08T22:12:09.479Z,98072.94
2022-10-08T22:14:37.039Z,98084.56
2022-10-08T22:17:04.410Z,98087.66
2022-10-08T22:19:31.847Z,98078.41
2022-10-08T22:21:59.257Z,98081.09
2022-10-08T22:24:26.724Z,98087.66
2022-10-08T22:26:54.187Z,98089.63
2022-10-08T22:29:21.642Z,98088.09
2022-10-08T22:31:49.088Z,98088.84
2022-10-08T22:34:16.592Z,98083.13
2022-10-08T22:36:45.135Z,98093.13
2022-10-08T22:39:13.029Z,98098.56
2022-10-08T22:41:40.733Z,98093.94
2022-10-08T22:44:08.164Z,98095.09
2022-10-08T22:46:38.738Z,98101.34
2022-10-08T22:49:09.385Z,98107.59
2022-10-08T22:51:37.234Z,98104.84
2022-10-08T22:54:05.380Z,98102.91
2022-10-08T22:56:33.334Z,98104.41
2022-10-08T22:59:01.065Z,98110.59
2022-10-08T23:01:29.917Z,98112.53
2022-10-08T23:03:58.393Z,98112.53
2022-10-08T23:06:28.752Z,98104.06
2022-10-08T23:09:01.710Z,98118.41
2022-10-08T23:11:30.483Z,98114.91
2022-10-08T23:13:59.932Z,98122.31
2022-10-08T23:16:29.245Z,98123.84
2022-10-08T23:18:59.448Z,98122.72
2022-10-08T23:21:27.040Z,98125.72
2022-10-08T23:23:55.783Z,98122.69
2022-10-08T23:26:24.048Z,98124.56
2022-10-08T23:28:57.293Z,98131.13
2022-10-08T23:31:27.878Z,98126.88
2022-10-08T23:33:56.379Z,98137.31
2022-10-08T23:36:32.151Z,98133.53
2022-10-08T23:38:59.823Z,98140.72
2022-10-08T23:41:27.991Z,98130.69
2022-10-08T23:43:57.184Z,98136.56
2022-10-08T23:46:27.056Z,98147.03
2022-10-08T23:48:55.044Z,98138.06
2022-10-08T23:51:23.935Z,98140.72
2022-10-08T23:53:52.651Z,98141.56
2022-10-08T23:56:21.206Z,98151.25
2022-10-08T23:58:48.877Z,98153.19
